Time;durP1;ratioP1;P1;durP2;ratioP2;P2;SDS_P1;SDS_P2;PMS_P1;PMS_P2;Temp;Humidity;BMP_temperature;BMP_pressure;BME280_temperature;BME280_humidity;BME280_pressure;Samples;Min_cycle;Max_cycle;Signal;HPM_P1;HPM_P2
2023/01/18 00:00:36;;;;;;;3.00;2.15;;;;;;;;;;5080905;28;20029;-86
2023/01/18 00:03:03;;;;;;;3.92;2.40;;;;;;;;;;5081729;28;20493;-85
2023/01/18 00:05:29;;;;;;;4.97;2.60;;;;;;;;;;5063107;28;20048;-86
2023/01/18 00:07:54;;;;;;;4.32;2.53;;;;;;;;;;5061568;28;20033;-85
2023/01/18 00:10:21;;;;;;;4.93;2.40;;;;;;;;;;5057457;28;20032;-86
2023/01/18 00:12:47;;;;;;;5.70;2.47;;;;;;;;;;5073522;28;20032;-85
2023/01/18 00:15:13;;;;;;;4.57;2.25;;;;;;;;;;5084323;28;20070;-86
2023/01/18 00:17:50;;;;;;;6.38;2.80;;;;;;;;;;5076926;28;20033;-84
2023/01/18 00:20:18;;;;;;;3.22;2.30;;;;;;;;;;5087198;28;20109;-85
2023/01/18 00:22:43;;;;;;;6.45;2.47;;;;;;;;;;5079797;28;20040;-85
2023/01/18 00:25:09;;;;;;;3.75;2.40;;;;;;;;;;5081310;28;20439;-87
2023/01/18 00:27:36;;;;;;;4.18;2.60;;;;;;;;;;5078752;28;20341;-85
2023/01/18 00:30:06;;;;;;;5.00;2.50;;;;;;;;;;5059994;28;20100;-85
2023/01/18 00:32:33;;;;;;;5.68;2.60;;;;;;;;;;5042709;28;20051;-87
2023/01/18 00:34:59;;;;;;;5.10;2.53;;;;;;;;;;5076732;28;20047;-87
2023/01/18 00:37:28;;;;;;;4.20;2.42;;;;;;;;;;5076723;28;20042;-86
2023/01/18 00:39:53;;;;;;;4.38;2.30;;;;;;;;;;5058816;28;20043;-86
2023/01/18 00:45:03;;;;;;;5.90;2.60;;;;;;;;;;5093273;28;20038;-85
2023/01/18 00:47:28;;;;;;;3.83;2.35;;;;;;;;;;5061459;28;20130;-87
2023/01/18 00:49:54;;;;;;;4.57;2.20;;;;;;;;;;5079088;28;20024;-85
2023/01/18 00:52:19;;;;;;;3.88;2.38;;;;;;;;;;5078304;28;20110;-84
2023/01/18 00:54:45;;;;;;;4.18;2.28;;;;;;;;;;5078016;28;20395;-85
2023/01/18 00:57:10;;;;;;;3.75;2.20;;;;;;;;;;5077599;28;20499;-85
2023/01/18 00:59:36;;;;;;;4.10;2.42;;;;;;;;;;5077876;28;20443;-86
2023/01/18 01:02:01;;;;;;;4.68;2.45;;;;;;;;;;5097301;28;20118;-85
2023/01/18 01:07:11;;;;;;;3.90;2.30;;;;;;;;;;5080459;28;20128;-85
2023/01/18 01:09:36;;;;;;;5.55;2.40;;;;;;;;;;5080875;28;20047;-85
2023/01/18 01:26:14;;;;;;;6.25;2.33;;;;;;;;;;5104938;28;20048;-86
2023/01/18 01:28:42;;;;;;;5.22;2.40;;;;;;;;;;5077342;28;20040;-86
2023/01/18 01:31:11;;;;;;;4.38;2.17;;;;;;;;;;5095095;28;20100;-85
2023/01/18 01:33:37;;;;;;;3.90;2.30;;;;;;;;;;5076838;28;20031;-86
2023/01/18 01:36:06;;;;;;;4.18;2.40;;;;;;;;;;5076240;28;20058;-85
2023/01/18 01:38:32;;;;;;;4.43;2.40;;;;;;;;;;5095221;28;20098;-85
2023/01/18 01:41:04;;;;;;;3.75;2.30;;;;;;;;;;5077073;28;20020;-85
2023/01/18 01:43:40;;;;;;;4.38;2.22;;;;;;;;;;5076474;28;20377;-85
2023/01/18 01:46:18;;;;;;;2.63;1.63;;;;;;;;;;5094223;28;20128;-85
2023/01/18 01:48:44;;;;;;;3.25;1.90;;;;;;;;;;5093951;28;20064;-85
2023/01/18 01:51:10;;;;;;;3.35;2.03;;;;;;;;;;5076077;28;20062;-85
2023/01/18 01:53:36;;;;;;;3.42;2.45;;;;;;;;;;5094557;28;20040;-86
2023/01/18 01:56:03;;;;;;;5.70;1.85;;;;;;;;;;5094444;28;20036;-87
2023/01/18 01:58:30;;;;;;;3.30;2.17;;;;;;;;;;5096410;28;20027;-85
2023/01/18 02:00:56;;;;;;;3.42;2.05;;;;;;;;;;5061986;28;20028;-85
2023/01/18 02:03:23;;;;;;;7.05;2.45;;;;;;;;;;5078114;28;20404;-85
2023/01/18 02:05:54;;;;;;;4.05;2.42;;;;;;;;;;5095568;28;20099;-84
2023/01/18 02:08:22;;;;;;;5.85;2.75;;;;;;;;;;5096009;28;20032;-85
2023/01/18 02:10:48;;;;;;;3.83;2.33;;;;;;;;;;5095762;28;20480;-85
2023/01/18 02:13:15;;;;;;;5.45;2.90;;;;;;;;;;5077361;28;20070;-85
2023/01/18 02:16:01;;;;;;;3.50;2.40;;;;;;;;;;5077934;28;20036;-86
2023/01/18 02:18:39;;;;;;;6.07;2.40;;;;;;;;;;5077924;28;20031;-86
2023/01/18 02:21:15;;;;;;;3.10;2.28;;;;;;;;;;5095894;28;20107;-85
2023/01/18 02:24:16;;;;;;;3.35;2.30;;;;;;;;;;5077666;28;20031;-85
2023/01/18 02:26:55;;;;;;;6.38;2.22;;;;;;;;;;5100959;28;20036;-85
2023/01/18 02:29:38;;;;;;;3.70;2.15;;;;;;;;;;5092910;28;20039;-85
2023/01/18 02:32:39;;;;;;;4.40;2.17;;;;;;;;;;5074791;28;20101;-85
2023/01/18 02:35:13;;;;;;;3.08;2.08;;;;;;;;;;5001802;28;20042;-84
2023/01/18 02:38:11;;;;;;;4.63;2.40;;;;;;;;;;5090195;28;20093;-84
2023/01/18 02:41:01;;;;;;;3.15;2.03;;;;;;;;;;5096969;28;20043;-85
2023/01/18 02:49:11;;;;;;;2.38;1.60;;;;;;;;;;5097885;28;20040;-85
2023/01/18 02:51:37;;;;;;;3.10;1.67;;;;;;;;;;5097694;28;20044;-85
2023/01/18 02:54:07;;;;;;;3.53;1.98;;;;;;;;;;5097651;28;20036;-85
2023/01/18 02:56:41;;;;;;;4.05;1.90;;;;;;;;;;5079390;28;20036;-85
2023/01/18 02:59:12;;;;;;;;;;;;;;;;;;5097835;28;20090;-83
2023/01/18 03:01:59;;;;;;;1.92;1.40;;;;;;;;;;5079361;28;20380;-85
2023/01/18 03:04:36;;;;;;;2.78;1.60;;;;;;;;;;5078894;28;20036;-85
2023/01/18 03:07:09;;;;;;;2.25;1.52;;;;;;;;;;5080026;28;20036;-85
2023/01/18 03:09:34;;;;;;;3.05;1.60;;;;;;;;;;5097587;28;20069;-85
2023/01/18 03:12:04;;;;;;;2.58;1.70;;;;;;;;;;5097038;28;20032;-85
2023/01/18 03:15:03;;;;;;;4.05;1.73;;;;;;;;;;5097196;28;20136;-85
2023/01/18 03:17:46;;;;;;;2.85;1.70;;;;;;;;;;5079421;28;20476;-85
2023/01/18 03:20:15;;;;;;;3.08;2.00;;;;;;;;;;5097922;28;20032;-86
2023/01/18 03:25:35;;;;;;;3.10;1.67;;;;;;;;;;5088643;28;20385;-85
2023/01/18 03:34:00;;;;;;;2.80;1.60;;;;;;;;;;5080007;28;20036;-85
2023/01/18 03:36:30;;;;;;;3.38;2.00;;;;;;;;;;5098316;28;20032;-85
2023/01/18 03:39:06;;;;;;;4.38;1.83;;;;;;;;;;5098811;28;20107;-85
2023/01/18 03:41:36;;;;;;;4.63;1.80;;;;;;;;;;5099626;28;20064;-85
2023/01/18 03:44:09;;;;;;;3.30;1.83;;;;;;;;;;5097379;28;20036;-86
2023/01/18 03:46:36;;;;;;;2.33;1.77;;;;;;;;;;5094466;28;20067;-85
2023/01/18 03:49:01;;;;;;;2.90;1.77;;;;;;;;;;5062446;28;20028;-85
2023/01/18 03:51:48;;;;;;;2.78;1.80;;;;;;;;;;5105145;28;20051;-85
2023/01/18 03:54:27;;;;;;;2.65;1.88;;;;;;;;;;5097530;28;20051;-85
2023/01/18 03:56:59;;;;;;;2.67;1.67;;;;;;;;;;5098850;28;20032;-86
2023/01/18 03:59:32;;;;;;;3.22;1.80;;;;;;;;;;5099176;28;20043;-85
2023/01/18 04:01:57;;;;;;;4.38;2.30;;;;;;;;;;5081895;28;20504;-85
2023/01/18 04:04:23;;;;;;;3.30;1.90;;;;;;;;;;5098335;28;20067;-87
2023/01/18 04:06:48;;;;;;;3.38;1.85;;;;;;;;;;5081047;28;20074;-85
2023/01/18 04:09:14;;;;;;;2.55;1.75;;;;;;;;;;5098579;28;20024;-84
2023/01/18 04:11:39;;;;;;;2.67;1.75;;;;;;;;;;5099238;28;20031;-85
2023/01/18 04:14:08;;;;;;;3.33;1.70;;;;;;;;;;5078754;28;20043;-84
2023/01/18 04:16:34;;;;;;;3.47;1.70;;;;;;;;;;5079242;28;20491;-85
2023/01/18 04:18:59;;;;;;;2.90;1.80;;;;;;;;;;5080731;22;20049;-86
2023/01/18 04:21:25;;;;;;;2.47;1.63;;;;;;;;;;5077268;28;20064;-86
2023/01/18 04:23:50;;;;;;;2.47;1.75;;;;;;;;;;5076603;28;20037;-86
2023/01/18 04:26:16;;;;;;;3.22;1.85;;;;;;;;;;5059288;28;20044;-86
2023/01/18 04:28:42;;;;;;;2.80;1.90;;;;;;;;;;5089261;28;20032;-86
2023/01/18 04:31:07;;;;;;;2.72;1.80;;;;;;;;;;5098235;28;20035;-85
2023/01/18 04:33:33;;;;;;;2.22;1.70;;;;;;;;;;5097681;28;20484;-86
2023/01/18 04:35:59;;;;;;;4.82;2.20;;;;;;;;;;5097529;28;20052;-85
2023/01/18 04:38:24;;;;;;;3.50;2.00;;;;;;;;;;5097427;28;20122;-85
2023/01/18 04:40:50;;;;;;;11.70;3.92;;;;;;;;;;5079139;28;20035;-86
2023/01/18 04:43:16;;;;;;;9.73;3.33;;;;;;;;;;5097731;28;20039;-85
2023/01/18 04:45:41;;;;;;;36.88;8.20;;;;;;;;;;5097338;28;20085;-86
2023/01/18 04:48:07;;;;;;;37.13;8.27;;;;;;;;;;5097415;28;20035;-87
2023/01/18 04:50:32;;;;;;;23.77;6.32;;;;;;;;;;5097834;28;20040;-87
2023/01/18 04:52:58;;;;;;;15.00;4.13;;;;;;;;;;5062649;28;20042;-86
2023/01/18 04:55:23;;;;;;;7.45;3.20;;;;;;;;;;5079587;28;20495;-85
2023/01/18 04:57:55;;;;;;;10.70;3.22;;;;;;;;;;5097378;28;20122;-86
2023/01/18 05:00:21;;;;;;;7.75;3.00;;;;;;;;;;5078732;28;20091;-86
2023/01/18 05:02:47;;;;;;;9.30;2.20;;;;;;;;;;5097541;28;20425;-85
2023/01/18 05:05:12;;;;;;;4.38;2.15;;;;;;;;;;5097506;28;20032;-86
2023/01/18 05:07:38;;;;;;;5.65;2.17;;;;;;;;;;5097860;28;20113;-85
2023/01/18 05:10:04;;;;;;;6.65;2.60;;;;;;;;;;5097206;28;20052;-85
2023/01/18 05:12:29;;;;;;;3.95;2.30;;;;;;;;;;5078452;28;20059;-86
2023/01/18 05:14:55;;;;;;;6.72;3.17;;;;;;;;;;5078301;28;20036;-86
2023/01/18 05:17:26;;;;;;;4.25;2.45;;;;;;;;;;5078144;28;20028;-86
2023/01/18 05:19:53;;;;;;;4.03;1.83;;;;;;;;;;5096607;28;20039;-86
2023/01/18 05:22:20;;;;;;;3.20;2.13;;;;;;;;;;5096767;28;20035;-86
2023/01/18 05:24:47;;;;;;;3.97;2.00;;;;;;;;;;5097092;28;20036;-86
2023/01/18 05:27:12;;;;;;;3.28;2.00;;;;;;;;;;5097497;28;20032;-86
2023/01/18 05:29:38;;;;;;;4.25;1.90;;;;;;;;;;5096949;28;20492;-87
2023/01/18 05:32:05;;;;;;;3.20;1.88;;;;;;;;;;5096740;28;20202;-86
2023/01/18 05:34:31;;;;;;;2.47;1.60;;;;;;;;;;5095547;28;20040;-87
2023/01/18 05:36:57;;;;;;;2.65;1.70;;;;;;;;;;5096393;28;20161;-86
2023/01/18 05:39:22;;;;;;;3.05;1.77;;;;;;;;;;5096003;28;20418;-86
2023/01/18 05:41:48;;;;;;;3.53;1.90;;;;;;;;;;5078437;28;20397;-86
2023/01/18 05:44:13;;;;;;;2.42;1.67;;;;;;;;;;5096064;28;20044;-85
2023/01/18 05:46:39;;;;;;;3.50;2.10;;;;;;;;;;5096252;28;20046;-85
2023/01/18 05:49:04;;;;;;;3.22;2.08;;;;;;;;;;5095869;28;20032;-85
2023/01/18 05:51:30;;;;;;;4.28;2.42;;;;;;;;;;5096608;28;20036;-85
2023/01/18 05:53:55;;;;;;;4.57;2.90;;;;;;;;;;5077456;28;20035;-83
2023/01/18 05:56:20;;;;;;;4.35;2.83;;;;;;;;;;5095728;28;20039;-84
2023/01/18 05:58:46;;;;;;;4.65;2.15;;;;;;;;;;5095769;28;20559;-85
2023/01/18 06:01:12;;;;;;;4.50;2.58;;;;;;;;;;5085472;28;20029;-85
2023/01/18 06:03:38;;;;;;;3.30;2.10;;;;;;;;;;5075739;28;20036;-84
2023/01/18 06:06:04;;;;;;;4.55;3.05;;;;;;;;;;5074859;28;20051;-85
2023/01/18 06:08:29;;;;;;;8.57;5.40;;;;;;;;;;5075139;28;20044;-85
2023/01/18 06:10:57;;;;;;;5.00;3.10;;;;;;;;;;5074439;28;20038;-85
2023/01/18 06:13:28;;;;;;;6.10;3.70;;;;;;;;;;5074898;28;20481;-85
2023/01/18 06:15:54;;;;;;;3.60;2.58;;;;;;;;;;5056790;28;20039;-84
2023/01/18 06:18:20;;;;;;;3.90;1.80;;;;;;;;;;5074983;28;20051;-85
2023/01/18 06:20:45;;;;;;;4.10;2.15;;;;;;;;;;5074936;28;20033;-84
2023/01/18 06:23:11;;;;;;;2.88;1.50;;;;;;;;;;5075009;28;20043;-86
2023/01/18 06:25:37;;;;;;;2.38;1.60;;;;;;;;;;5057298;28;20154;-85
2023/01/18 06:28:03;;;;;;;1.80;1.30;;;;;;;;;;5075277;28;20028;-85
2023/01/18 06:30:30;;;;;;;1.65;1.10;;;;;;;;;;5075070;28;20396;-85
2023/01/18 06:32:55;;;;;;;3.80;1.83;;;;;;;;;;5056653;28;20066;-85
2023/01/18 06:35:21;;;;;;;4.78;2.80;;;;;;;;;;5056695;28;20058;-85
2023/01/18 06:37:46;;;;;;;4.88;3.10;;;;;;;;;;5075102;28;20059;-84
2023/01/18 06:40:12;;;;;;;4.70;3.00;;;;;;;;;;5074910;28;20448;-85
2023/01/18 06:42:39;;;;;;;4.20;2.47;;;;;;;;;;5075312;28;20048;-85
2023/01/18 06:45:04;;;;;;;4.72;2.60;;;;;;;;;;5075020;28;20028;-85
2023/01/18 06:47:30;;;;;;;7.32;3.30;;;;;;;;;;5074899;28;20055;-85
2023/01/18 06:49:56;;;;;;;4.20;2.83;;;;;;;;;;5075079;28;20400;-85
2023/01/18 06:52:21;;;;;;;4.50;3.00;;;;;;;;;;5075490;28;20085;-85
2023/01/18 06:54:46;;;;;;;3.35;2.30;;;;;;;;;;5074744;28;20024;-85
2023/01/18 06:57:12;;;;;;;3.25;2.00;;;;;;;;;;5075196;28;20033;-85
2023/01/18 06:59:39;;;;;;;2.90;2.00;;;;;;;;;;5057322;28;20032;-84
2023/01/18 07:02:05;;;;;;;2.90;1.75;;;;;;;;;;5075203;28;20044;-85
2023/01/18 07:04:36;;;;;;;3.80;1.90;;;;;;;;;;5074825;28;20025;-85
2023/01/18 07:07:02;;;;;;;2.30;1.65;;;;;;;;;;5075586;28;20046;-85
2023/01/18 07:09:27;;;;;;;5.00;2.03;;;;;;;;;;5074632;28;20068;-84
2023/01/18 07:11:53;;;;;;;2.78;1.88;;;;;;;;;;5075550;28;20457;-84
2023/01/18 07:14:18;;;;;;;4.22;2.40;;;;;;;;;;5077049;28;20027;-83
2023/01/18 07:16:44;;;;;;;3.65;2.20;;;;;;;;;;5077168;28;20058;-84
2023/01/18 07:19:09;;;;;;;4.72;2.10;;;;;;;;;;5068707;28;20058;-84
2023/01/18 07:21:35;;;;;;;3.85;1.98;;;;;;;;;;5087386;28;20116;-84
2023/01/18 07:24:00;;;;;;;3.67;2.15;;;;;;;;;;5089688;28;20020;-83
2023/01/18 07:26:26;;;;;;;2.90;2.13;;;;;;;;;;5071201;28;20062;-84
2023/01/18 07:28:54;;;;;;;4.70;2.20;;;;;;;;;;5088872;28;20028;-84
2023/01/18 07:31:20;;;;;;;5.57;3.20;;;;;;;;;;5070056;28;20040;-85
2023/01/18 07:33:45;;;;;;;6.60;3.60;;;;;;;;;;5045960;28;20400;-85
2023/01/18 07:36:11;;;;;;;5.07;3.20;;;;;;;;;;5079649;28;20029;-85
2023/01/18 07:38:37;;;;;;;4.30;3.15;;;;;;;;;;5078829;28;20467;-85
2023/01/18 07:41:14;;;;;;;4.70;3.25;;;;;;;;;;5079075;28;20484;-84
2023/01/18 07:43:41;;;;;;;6.00;3.20;;;;;;;;;;5078560;28;20044;-87
2023/01/18 07:46:09;;;;;;;5.68;3.45;;;;;;;;;;5078630;28;20123;-87
2023/01/18 07:48:35;;;;;;;8.23;3.85;;;;;;;;;;5079766;28;20401;-87
2023/01/18 07:51:03;;;;;;;4.60;2.85;;;;;;;;;;5079188;28;20037;-87
2023/01/18 07:53:31;;;;;;;4.30;2.47;;;;;;;;;;5079340;28;20043;-86
2023/01/18 07:56:11;;;;;;;4.10;2.47;;;;;;;;;;5078833;28;20025;-89
2023/01/18 07:58:36;;;;;;;3.45;2.00;;;;;;;;;;5079965;28;20024;-86
2023/01/18 08:01:08;;;;;;;3.50;2.00;;;;;;;;;;5079727;28;20400;-88
2023/01/18 08:03:35;;;;;;;3.95;2.28;;;;;;;;;;5060880;28;20115;-85
2023/01/18 08:06:02;;;;;;;3.85;2.00;;;;;;;;;;5059471;28;20027;-84
2023/01/18 08:08:28;;;;;;;2.88;1.80;;;;;;;;;;5076484;28;20111;-84
2023/01/18 08:10:59;;;;;;;3.05;1.63;;;;;;;;;;5075952;28;20033;-86
2023/01/18 08:13:25;;;;;;;3.83;1.88;;;;;;;;;;5076086;28;20036;-85
2023/01/18 08:15:52;;;;;;;3.70;2.03;;;;;;;;;;5077481;28;20024;-85
2023/01/18 08:18:20;;;;;;;2.60;1.90;;;;;;;;;;5058839;28;20040;-86
2023/01/18 08:20:47;;;;;;;3.67;2.03;;;;;;;;;;5062800;28;20496;-85
2023/01/18 08:23:14;;;;;;;3.22;2.30;;;;;;;;;;5096504;28;20039;-85
2023/01/18 08:25:40;;;;;;;3.53;2.53;;;;;;;;;;5096020;28;20032;-85
2023/01/18 08:28:08;;;;;;;3.80;2.40;;;;;;;;;;5096567;28;20032;-85
2023/01/18 08:30:39;;;;;;;5.35;2.35;;;;;;;;;;5095993;28;20476;-85
2023/01/18 08:33:06;;;;;;;3.95;2.15;;;;;;;;;;5096002;28;20038;-85
2023/01/18 08:35:43;;;;;;;3.88;2.83;;;;;;;;;;5060472;28;20024;-86
2023/01/18 08:38:10;;;;;;;4.45;2.70;;;;;;;;;;5096459;28;20109;-85
2023/01/18 08:40:36;;;;;;;3.13;2.03;;;;;;;;;;5096636;28;20110;-85
2023/01/18 08:43:03;;;;;;;5.93;2.42;;;;;;;;;;5096372;28;20036;-85
2023/01/18 08:45:29;;;;;;;3.58;1.95;;;;;;;;;;5096485;28;20097;-86
2023/01/18 08:48:01;;;;;;;2.45;1.70;;;;;;;;;;5078350;28;20043;-86
2023/01/18 08:50:29;;;;;;;2.63;1.63;;;;;;;;;;5077950;28;20532;-86
2023/01/18 08:52:55;;;;;;;3.28;2.20;;;;;;;;;;5077410;28;20078;-85
2023/01/18 08:55:21;;;;;;;3.08;2.13;;;;;;;;;;5060235;28;20043;-85
2023/01/18 08:57:48;;;;;;;3.42;1.90;;;;;;;;;;5095410;28;20032;-85
2023/01/18 09:00:16;;;;;;;3.25;2.00;;;;;;;;;;5095372;28;20111;-86
2023/01/18 09:02:41;;;;;;;3.65;2.30;;;;;;;;;;5094839;28;20496;-84
2023/01/18 09:05:07;;;;;;;3.58;2.40;;;;;;;;;;5094398;28;20060;-85
2023/01/18 09:07:32;;;;;;;4.63;2.58;;;;;;;;;;5076727;28;20059;-85
2023/01/18 09:09:58;;;;;;;4.68;2.70;;;;;;;;;;5095315;28;20122;-84
2023/01/18 09:12:24;;;;;;;7.35;3.13;;;;;;;;;;5095740;28;20031;-84
2023/01/18 09:14:49;;;;;;;5.22;2.83;;;;;;;;;;5096419;28;20529;-84
2023/01/18 09:17:18;;;;;;;4.65;2.90;;;;;;;;;;5097909;28;20074;-85
2023/01/18 09:19:44;;;;;;;4.00;2.60;;;;;;;;;;5094880;28;20031;-85
2023/01/18 09:22:10;;;;;;;4.53;2.70;;;;;;;;;;5095361;28;20032;-84
2023/01/18 09:24:36;;;;;;;3.60;2.40;;;;;;;;;;5096522;28;20039;-86
2023/01/18 09:27:01;;;;;;;4.75;2.25;;;;;;;;;;5095168;28;20044;-84
2023/01/18 09:29:27;;;;;;;3.42;2.10;;;;;;;;;;5095352;28;20080;-84
2023/01/18 09:31:54;;;;;;;3.58;2.17;;;;;;;;;;5095002;28;20107;-84
2023/01/18 09:34:20;;;;;;;3.25;1.80;;;;;;;;;;5095172;28;20028;-85
2023/01/18 09:36:50;;;;;;;4.22;2.13;;;;;;;;;;5094934;28;20029;-84
2023/01/18 09:39:15;;;;;;;7.13;2.92;;;;;;;;;;5095973;28;20036;-84
2023/01/18 09:41:45;;;;;;;2.92;2.08;;;;;;;;;;5095562;28;20051;-85
2023/01/18 09:44:20;;;;;;;2.72;1.73;;;;;;;;;;5086963;28;20036;-85
2023/01/18 09:46:51;;;;;;;5.32;1.92;;;;;;;;;;5075702;28;20055;-85
2023/01/18 09:49:50;;;;;;;3.22;2.00;;;;;;;;;;5076165;28;20054;-85
2023/01/18 09:52:31;;;;;;;2.90;1.77;;;;;;;;;;5075904;28;20025;-85
2023/01/18 09:55:12;;;;;;;3.90;2.25;;;;;;;;;;5073849;28;20052;-84
2023/01/18 09:57:50;;;;;;;4.05;2.50;;;;;;;;;;5074778;28;20036;-84
2023/01/18 10:00:28;;;;;;;4.57;2.40;;;;;;;;;;5073735;28;20041;-84
2023/01/18 10:02:59;;;;;;;3.97;2.03;;;;;;;;;;5074282;28;20032;-85
2023/01/18 10:05:35;;;;;;;4.97;2.13;;;;;;;;;;5074318;28;20039;-82
2023/01/18 10:08:13;;;;;;;3.05;1.60;;;;;;;;;;5073447;28;20029;-81
2023/01/18 10:10:48;;;;;;;4.93;1.60;;;;;;;;;;5073295;28;20136;-82
2023/01/18 10:13:25;;;;;;;3.65;1.50;;;;;;;;;;5072990;28;20048;-83
2023/01/18 10:15:51;;;;;;;3.50;2.10;;;;;;;;;;5054918;28;20029;-83
2023/01/18 10:18:17;;;;;;;2.42;1.50;;;;;;;;;;5098535;22;20519;-82
2023/01/18 10:20:58;;;;;;;2.95;1.50;;;;;;;;;;5117445;28;20047;-87
2023/01/18 10:24:02;;;;;;;3.75;1.75;;;;;;;;;;5114336;28;20085;-83
2023/01/18 10:26:30;;;;;;;3.00;1.58;;;;;;;;;;5113402;28;20122;-83
2023/01/18 10:29:04;;;;;;;2.00;1.30;;;;;;;;;;5113553;28;20483;-86
2023/01/18 10:31:48;;;;;;;45.03;13.30;;;;;;;;;;5113649;28;20031;-85
2023/01/18 10:34:21;;;;;;;;;;;;;;;;;;5112257;28;20066;-83
2023/01/18 10:36:50;;;;;;;6.65;1.98;;;;;;;;;;5113318;28;19916;-86
2023/01/18 10:39:36;;;;;;;4.03;2.40;;;;;;;;;;5113641;28;20567;-86
2023/01/18 10:42:05;;;;;;;3.90;1.80;;;;;;;;;;5113094;28;20053;-87
2023/01/18 10:44:30;;;;;;;2.50;1.55;;;;;;;;;;5112434;28;20046;-87
2023/01/18 10:46:58;;;;;;;2.63;1.50;;;;;;;;;;5112954;28;20040;-85
2023/01/18 10:49:36;;;;;;;2.50;1.40;;;;;;;;;;5094893;28;20024;-86
2023/01/18 10:52:26;;;;;;;3.08;1.45;;;;;;;;;;5117141;28;20031;-81
2023/01/18 10:55:06;;;;;;;1.77;1.05;;;;;;;;;;5115625;28;20047;-86
2023/01/18 10:57:42;;;;;;;2.42;1.48;;;;;;;;;;5115756;28;20059;-84
2023/01/18 11:00:25;;;;;;;2.60;1.48;;;;;;;;;;5117250;28;20027;-86
2023/01/18 11:02:53;;;;;;;3.20;1.45;;;;;;;;;;5081864;28;20046;-85
2023/01/18 11:05:42;;;;;;;3.83;1.80;;;;;;;;;;5116892;28;20046;-86
2023/01/18 11:08:31;;;;;;;2.53;1.60;;;;;;;;;;5117050;28;20127;-85
2023/01/18 11:11:01;;;;;;;3.72;1.70;;;;;;;;;;5126126;28;20028;-85
2023/01/18 11:13:31;;;;;;;3.55;2.10;;;;;;;;;;5118464;28;20093;-86
2023/01/18 11:16:02;;;;;;;5.82;2.25;;;;;;;;;;5116844;28;20043;-86
2023/01/18 11:18:28;;;;;;;4.75;2.38;;;;;;;;;;5081592;28;20482;-86
2023/01/18 11:20:54;;;;;;;4.75;3.17;;;;;;;;;;5117488;28;20057;-85
2023/01/18 11:23:28;;;;;;;3.92;2.33;;;;;;;;;;5117292;28;20035;-85
2023/01/18 11:25:58;;;;;;;5.05;2.63;;;;;;;;;;5081161;28;20063;-85
2023/01/18 11:31:59;;;;;;;3.28;1.50;;;;;;;;;;5181882;22;20122;-86
2023/01/18 11:35:16;;;;;;;2.45;1.33;;;;;;;;;;5090378;28;20051;-85
2023/01/18 11:38:07;;;;;;;2.15;1.10;;;;;;;;;;5115077;28;20028;-85
2023/01/18 11:40:34;;;;;;;2.40;1.30;;;;;;;;;;5098353;28;20088;-86
2023/01/18 11:43:08;;;;;;;2.10;1.40;;;;;;;;;;5116399;28;20128;-88
2023/01/18 11:45:41;;;;;;;2.85;1.73;;;;;;;;;;5115423;28;20498;-87
2023/01/18 11:48:27;;;;;;;4.88;2.40;;;;;;;;;;5097861;28;20035;-90
2023/01/18 11:51:09;;;;;;;5.32;2.83;;;;;;;;;;5115579;28;20096;-87
2023/01/18 11:53:56;;;;;;;6.68;2.30;;;;;;;;;;5115176;28;20066;-88
2023/01/18 11:56:35;;;;;;;5.20;2.50;;;;;;;;;;5128294;28;20095;-90
2023/01/18 11:59:01;;;;;;;3.67;2.00;;;;;;;;;;5123771;28;20511;-90
2023/01/18 12:02:08;;;;;;;3.65;1.88;;;;;;;;;;5105040;28;20423;-88
2023/01/18 12:04:55;;;;;;;3.90;1.70;;;;;;;;;;5044753;28;20045;-90
2023/01/18 12:07:48;;;;;;;8.73;3.72;;;;;;;;;;5098362;28;20134;-88
2023/01/18 12:10:20;;;;;;;9.13;4.82;;;;;;;;;;5096189;28;20091;-88
2023/01/18 12:13:23;;;;;;;8.20;3.60;;;;;;;;;;5115397;28;20479;-87
2023/01/18 12:16:18;;;;;;;5.22;2.10;;;;;;;;;;5080819;28;20035;-87
2023/01/18 12:19:09;;;;;;;5.93;2.80;;;;;;;;;;5096584;28;20032;-89
2023/01/18 12:21:53;;;;;;;4.35;2.20;;;;;;;;;;5115100;28;20084;-90
2023/01/18 12:24:38;;;;;;;3.25;1.90;;;;;;;;;;5106327;28;20024;-91
2023/01/18 12:27:31;;;;;;;4.50;2.10;;;;;;;;;;5099588;28;20043;-90
2023/01/18 12:30:17;;;;;;;6.38;2.60;;;;;;;;;;5099518;28;20040;-89
2023/01/18 12:33:14;;;;;;;7.55;2.83;;;;;;;;;;5067259;28;20438;-88
2023/01/18 12:35:42;;;;;;;4.10;2.97;;;;;;;;;;5100673;28;20040;-90
2023/01/18 12:38:22;;;;;;;3.83;2.00;;;;;;;;;;5100649;28;20035;-90
2023/01/18 12:41:06;;;;;;;3.50;1.70;;;;;;;;;;5083593;28;20118;-90
2023/01/18 12:43:53;;;;;;;2.45;1.60;;;;;;;;;;5118510;28;20020;-88
2023/01/18 12:46:23;;;;;;;2.22;1.50;;;;;;;;;;5097324;28;20122;-88
2023/01/18 12:48:59;;;;;;;2.67;1.65;;;;;;;;;;5097344;28;20035;-86
2023/01/18 12:51:27;;;;;;;2.92;1.63;;;;;;;;;;5116635;28;20039;-87
2023/01/18 12:53:58;;;;;;;2.88;1.40;;;;;;;;;;5115894;28;20501;-87
2023/01/18 12:56:40;;;;;;;3.30;1.75;;;;;;;;;;5096717;28;20032;-87
2023/01/18 12:59:33;;;;;;;2.08;1.30;;;;;;;;;;5117654;28;20035;-85
2023/01/18 13:02:04;;;;;;;4.40;2.45;;;;;;;;;;5092242;28;20044;-87
2023/01/18 13:04:45;;;;;;;4.57;2.00;;;;;;;;;;5096978;28;20073;-87
2023/01/18 13:07:14;;;;;;;2.30;1.50;;;;;;;;;;5115682;28;20045;-89
2023/01/18 13:09:45;;;;;;;2.42;1.52;;;;;;;;;;5115465;28;20093;-87
2023/01/18 13:12:11;;;;;;;2.00;1.30;;;;;;;;;;5115915;28;20063;-87
2023/01/18 13:14:39;;;;;;;3.38;1.40;;;;;;;;;;5114642;28;20562;-88
2023/01/18 13:17:18;;;;;;;3.38;1.20;;;;;;;;;;5079627;28;20042;-88
2023/01/18 13:19:53;;;;;;;2.15;1.20;;;;;;;;;;5114874;28;20038;-87
2023/01/18 13:23:03;;;;;;;2.08;0.90;;;;;;;;;;5114861;28;20062;-87
2023/01/18 13:25:31;;;;;;;2.67;1.00;;;;;;;;;;5114744;28;20027;-87
2023/01/18 13:28:14;;;;;;;2.20;1.00;;;;;;;;;;5096788;28;20032;-87
2023/01/18 13:30:59;;;;;;;2.40;1.20;;;;;;;;;;5114759;28;20506;-87
2023/01/18 13:33:28;;;;;;;8.18;3.50;;;;;;;;;;5113701;28;20051;-88
2023/01/18 13:36:01;;;;;;;16.35;4.00;;;;;;;;;;5096841;28;20493;-88
2023/01/18 13:38:27;;;;;;;5.32;3.03;;;;;;;;;;5118138;28;20043;-86
2023/01/18 13:41:01;;;;;;;5.07;2.90;;;;;;;;;;5115783;28;20042;-88
2023/01/18 13:43:36;;;;;;;7.15;3.83;;;;;;;;;;5096714;28;20084;-87
2023/01/18 13:46:07;;;;;;;4.78;2.17;;;;;;;;;;5115982;28;20032;-87
2023/01/18 13:48:49;;;;;;;4.32;2.20;;;;;;;;;;5125344;28;20555;-85
2023/01/18 13:51:39;;;;;;;6.32;2.28;;;;;;;;;;5118882;28;20177;-86
2023/01/18 13:54:17;;;;;;;3.08;1.70;;;;;;;;;;5118644;28;20031;-85
2023/01/18 13:57:02;;;;;;;2.50;1.60;;;;;;;;;;5117746;28;20028;-89
2023/01/18 13:59:32;;;;;;;6.38;3.03;;;;;;;;;;5098963;28;20035;-85
2023/01/18 14:02:26;;;;;;;7.35;3.80;;;;;;;;;;5078183;28;20031;-87
2023/01/18 14:05:04;;;;;;;6.40;3.42;;;;;;;;;;5123560;28;20053;-86
2023/01/18 14:07:39;;;;;;;5.97;2.33;;;;;;;;;;5115623;28;20044;-87
2023/01/18 14:10:14;;;;;;;2.65;1.70;;;;;;;;;;5097958;28;20031;-87
2023/01/18 14:12:48;;;;;;;3.60;2.17;;;;;;;;;;5116176;28;20459;-86
2023/01/18 14:15:45;;;;;;;3.30;1.80;;;;;;;;;;5116726;28;20100;-87
2023/01/18 14:18:16;;;;;;;3.00;1.70;;;;;;;;;;5081835;28;20043;-88
2023/01/18 14:21:08;;;;;;;4.07;2.10;;;;;;;;;;5116395;28;20064;-88
2023/01/18 14:24:13;;;;;;;4.82;2.25;;;;;;;;;;5097889;28;20115;-85
2023/01/18 14:26:41;;;;;;;8.90;4.30;;;;;;;;;;5115748;28;20107;-86
2023/01/18 14:29:16;;;;;;;7.57;3.80;;;;;;;;;;5116457;28;20035;-87
2023/01/18 14:31:46;;;;;;;5.32;2.50;;;;;;;;;;5117312;28;20031;-88
2023/01/18 14:34:22;;;;;;;8.48;2.97;;;;;;;;;;5101583;28;20134;-88
2023/01/18 14:36:48;;;;;;;6.00;2.70;;;;;;;;;;5118893;28;20036;-87
2023/01/18 14:39:16;;;;;;;4.40;2.40;;;;;;;;;;5118568;28;20019;-87
2023/01/18 14:41:44;;;;;;;4.82;2.00;;;;;;;;;;5119640;28;20048;-85
2023/01/18 14:44:16;;;;;;;4.25;1.80;;;;;;;;;;5116853;28;20047;-87
2023/01/18 14:46:47;;;;;;;2.22;1.50;;;;;;;;;;5098640;28;20038;-86
2023/01/18 14:49:17;;;;;;;1.17;0.95;;;;;;;;;;5118074;28;20043;-87
2023/01/18 14:51:48;;;;;;;2.58;1.20;;;;;;;;;;5110979;28;20085;-86
2023/01/18 14:54:16;;;;;;;1.20;0.88;;;;;;;;;;5121950;28;20031;-88
2023/01/18 14:56:42;;;;;;;0.93;0.70;;;;;;;;;;5097325;28;20040;-89
2023/01/18 14:59:26;;;;;;;1.05;0.80;;;;;;;;;;5097927;28;20063;-88
2023/01/18 15:01:57;;;;;;;1.98;1.00;;;;;;;;;;5098694;28;20122;-87
2023/01/18 15:04:28;;;;;;;1.58;1.00;;;;;;;;;;5062636;28;20028;-87
2023/01/18 15:06:58;;;;;;;2.05;1.20;;;;;;;;;;5106446;28;20062;-88
2023/01/18 15:09:25;;;;;;;2.63;1.30;;;;;;;;;;5096779;28;20040;-89
2023/01/18 15:11:54;;;;;;;2.08;1.20;;;;;;;;;;5078895;28;20043;-89
2023/01/18 15:14:22;;;;;;;1.20;1.00;;;;;;;;;;5097308;28;20504;-90
2023/01/18 15:16:50;;;;;;;2.38;1.13;;;;;;;;;;5080205;28;20043;-87
2023/01/18 15:19:20;;;;;;;3.13;1.02;;;;;;;;;;5082124;28;20103;-89
2023/01/18 15:21:46;;;;;;;2.60;1.05;;;;;;;;;;5081217;28;20428;-89
2023/01/18 15:24:18;;;;;;;1.38;1.10;;;;;;;;;;5064417;28;20040;-89
2023/01/18 15:26:55;;;;;;;1.65;1.10;;;;;;;;;;5080252;28;20036;-88
2023/01/18 15:29:26;;;;;;;1.10;1.00;;;;;;;;;;5099665;28;20036;-88
2023/01/18 15:31:57;;;;;;;1.42;1.00;;;;;;;;;;5102108;28;20031;-89
2023/01/18 15:34:32;;;;;;;1.55;0.90;;;;;;;;;;5120508;28;20036;-90
2023/01/18 15:37:00;;;;;;;1.42;1.20;;;;;;;;;;5100486;28;20034;-89
2023/01/18 15:39:26;;;;;;;1.85;1.40;;;;;;;;;;5099486;28;20126;-89
2023/01/18 15:41:54;;;;;;;2.08;1.55;;;;;;;;;;5100911;28;20073;-88
2023/01/18 15:44:32;;;;;;;1.88;1.48;;;;;;;;;;5117974;28;20514;-87
2023/01/18 15:46:57;;;;;;;2.92;1.70;;;;;;;;;;5118730;28;20122;-88